createdAt,value
2018-05-29T00:00:13.714Z,0
2018-05-29T00:10:13.786Z,0
2018-05-29T00:20:13.761Z,0
2018-05-29T00:30:13.909Z,0
2018-05-29T00:40:13.786Z,0
2018-05-29T00:50:13.733Z,0
2018-05-29T01:00:13.819Z,0
2018-05-29T01:10:13.812Z,0
2018-05-29T01:20:13.811Z,0
2018-05-29T01:30:13.848Z,0
2018-05-29T01:40:13.727Z,0
2018-05-29T01:50:13.801Z,0
2018-05-29T02:00:13.770Z,0
2018-05-29T02:10:13.749Z,0
2018-05-29T02:20:13.852Z,0
2018-05-29T02:30:13.779Z,4
2018-05-29T02:40:13.833Z,4
2018-05-29T02:50:13.778Z,16
2018-05-29T03:00:13.744Z,52
2018-05-29T03:10:13.828Z,156
2018-05-29T03:20:13.808Z,288
2018-05-29T03:30:13.763Z,576
2018-05-29T03:40:13.847Z,1104
2018-05-29T03:50:13.724Z,1712
2018-05-29T04:00:13.789Z,2416
2018-05-29T04:10:13.776Z,2960
2018-05-29T04:20:13.818Z,3348
2018-05-29T04:30:13.844Z,3780
2018-05-29T04:40:13.794Z,4644
2018-05-29T04:50:13.818Z,5268
2018-05-29T05:00:13.776Z,5808
2018-05-29T05:10:13.787Z,6620
2018-05-29T05:20:13.848Z,7220
2018-05-29T05:30:13.856Z,8088
2018-05-29T05:40:13.845Z,8760
2018-05-29T05:50:13.809Z,10176
2018-05-29T06:00:13.771Z,12404
2018-05-29T06:10:13.886Z,38880
2018-05-29T06:20:13.789Z,41536
2018-05-29T06:30:13.746Z,42144
2018-05-29T06:40:13.848Z,47936
2018-05-29T06:50:14.657Z,47776
2018-05-29T07:00:13.841Z,48064
2018-05-29T07:10:13.837Z,46624
2018-05-29T07:20:13.923Z,51648
2018-05-29T07:30:14.141Z,54944
2018-05-29T07:40:13.777Z,54432
2018-05-29T07:50:13.841Z,63360
2018-05-29T08:00:13.844Z,69344
2018-05-29T08:10:13.842Z,65344
2018-05-29T08:20:13.819Z,74080
2018-05-29T08:30:14.671Z,76736
2018-05-29T08:40:13.847Z,75968
2018-05-29T08:50:13.788Z,73536
2018-05-29T09:00:13.844Z,11272
2018-05-29T09:10:13.793Z,10380
2018-05-29T09:20:13.896Z,9704
2018-05-29T09:30:13.851Z,9248
2018-05-29T09:40:13.889Z,9168
2018-05-29T09:50:13.858Z,9092
2018-05-29T10:00:13.797Z,9664
2018-05-29T10:10:13.867Z,9808
2018-05-29T10:20:13.835Z,10028
2018-05-29T10:30:13.842Z,9868
2018-05-29T10:40:13.859Z,9416
2018-05-29T10:50:13.878Z,11212
2018-05-29T11:00:13.989Z,9932
2018-05-29T11:10:13.842Z,9836
2018-05-29T11:20:13.893Z,7884
2018-05-29T11:30:13.917Z,7956
2018-05-29T11:40:13.995Z,9116
2018-05-29T11:50:13.842Z,8212
2018-05-29T12:00:13.898Z,8108
2018-05-29T12:10:13.999Z,8936
2018-05-29T12:20:14.760Z,12800
2018-05-29T12:30:13.906Z,10852
2018-05-29T12:40:13.964Z,8704
2018-05-29T12:50:13.861Z,9316
2018-05-29T13:00:13.892Z,12128
2018-05-29T13:10:13.912Z,7800
2018-05-29T13:20:14.811Z,7952
2018-05-29T13:30:13.983Z,9148
2018-05-29T13:40:14.009Z,9424
2018-05-29T13:50:13.874Z,9884
2018-05-29T14:00:14.044Z,11848
2018-05-29T14:10:14.012Z,13232
2018-05-29T14:20:13.903Z,14080
2018-05-29T14:30:13.917Z,12924
2018-05-29T14:40:14.106Z,11780
2018-05-29T14:50:14.039Z,10080
2018-05-29T15:00:16.793Z,7928
2018-05-29T15:10:13.991Z,6164
2018-05-29T15:20:13.995Z,5640
2018-05-29T15:30:13.979Z,5048
2018-05-29T15:40:14.022Z,3936
2018-05-29T15:50:15.173Z,5088
2018-05-29T16:00:15.984Z,5128
2018-05-29T16:10:15.112Z,5616
2018-05-29T16:20:14.142Z,6948
2018-05-29T16:30:14.268Z,7128
2018-05-29T16:40:14.043Z,5680
2018-05-29T16:50:14.049Z,5956
2018-05-29T17:00:14.205Z,7272
2018-05-29T17:10:14.039Z,6560
2018-05-29T17:20:14.106Z,1060
2018-05-29T17:30:14.134Z,1776
2018-05-29T17:40:14.055Z,1700
2018-05-29T17:50:16.769Z,1888
2018-05-29T18:00:14.850Z,1796
2018-05-29T18:10:16.097Z,1868
2018-05-29T18:20:16.404Z,1600
2018-05-29T18:30:14.918Z,1284
2018-05-29T18:40:14.175Z,932
2018-05-29T18:50:14.102Z,720
2018-05-29T19:00:14.020Z,504
2018-05-29T19:10:14.081Z,332
2018-05-29T19:20:14.085Z,196
2018-05-29T19:30:14.013Z,108
2018-05-29T19:41:04.487Z,60
2018-05-29T19:51:02.604Z,28
2018-05-29T20:00:14.138Z,8
2018-05-29T20:10:14.056Z,4
2018-05-29T20:20:14.524Z,4
2018-05-29T20:30:14.152Z,4
2018-05-29T20:40:17.538Z,0
2018-05-29T20:50:14.301Z,0
2018-05-29T21:00:14.106Z,0
2018-05-29T21:10:14.177Z,0
2018-05-29T21:20:14.256Z,0
2018-05-29T21:30:14.280Z,0
2018-05-29T21:40:14.565Z,0
2018-05-29T21:50:18.809Z,0
2018-05-29T22:00:14.166Z,0
2018-05-29T22:10:15.294Z,0
2018-05-29T22:20:16.104Z,0
2018-05-29T22:30:14.219Z,0
2018-05-29T22:40:14.586Z,0
2018-05-29T22:50:14.778Z,0
2018-05-29T23:00:14.506Z,0
2018-05-29T23:10:15.496Z,0
2018-05-29T23:20:14.182Z,0
2018-05-29T23:30:14.220Z,0
2018-05-29T23:40:14.076Z,0
2018-05-29T23:50:14.056Z,0
